sensor_id;sensor_type;location;lat;lon;timestamp;temperature;humidity
15048;DHT22;7621;52.350;13.308;2022-09-17T00:00:39;13.00;99.90
15048;DHT22;7621;52.350;13.308;2022-09-17T00:03:05;13.10;99.90
15048;DHT22;7621;52.350;13.308;2022-09-17T00:05:31;13.10;99.90
15048;DHT22;7621;52.350;13.308;2022-09-17T00:07:56;13.10;99.90
15048;DHT22;7621;52.350;13.308;2022-09-17T00:10:22;13.10;99.90
15048;DHT22;7621;52.350;13.308;2022-09-17T00:12:48;13.10;99.90
15048;DHT22;7621;52.350;13.308;2022-09-17T00:15:14;13.20;99.90
15048;DHT22;7621;52.350;13.308;2022-09-17T00:17:40;13.20;99.90
15048;DHT22;7621;52.350;13.308;2022-09-17T00:20:07;13.20;99.90
15048;DHT22;7621;52.350;13.308;2022-09-17T00:22:36;13.20;99.90
15048;DHT22;7621;52.350;13.308;2022-09-17T00:25:03;13.20;99.90
15048;DHT22;7621;52.350;13.308;2022-09-17T00:27:29;13.20;99.90
15048;DHT22;7621;52.350;13.308;2022-09-17T00:29:55;13.20;99.90
15048;DHT22;7621;52.350;13.308;2022-09-17T00:32:21;13.30;99.90
15048;DHT22;7621;52.350;13.308;2022-09-17T00:34:48;13.30;99.90
15048;DHT22;7621;52.350;13.308;2022-09-17T00:37:13;13.30;99.90
15048;DHT22;7621;52.350;13.308;2022-09-17T00:39:39;13.30;99.90
15048;DHT22;7621;52.350;13.308;2022-09-17T00:42:05;13.30;99.90
15048;DHT22;7621;52.350;13.308;2022-09-17T07:32:23;17.20;99.90
15048;DHT22;7621;52.350;13.308;2022-09-17T07:34:49;17.20;99.90
15048;DHT22;7621;52.350;13.308;2022-09-17T07:37:15;17.20;99.90
15048;DHT22;7621;52.350;13.308;2022-09-17T07:39:41;17.10;99.70
15048;DHT22;7621;52.350;13.308;2022-09-17T07:42:07;16.90;99.70
15048;DHT22;7621;52.350;13.308;2022-09-17T07:44:33;16.70;99.90
15048;DHT22;7621;52.350;13.308;2022-09-17T07:46:59;16.60;99.90
15048;DHT22;7621;52.350;13.308;2022-09-17T07:49:24;16.50;99.90
15048;DHT22;7621;52.350;13.308;2022-09-17T07:51:50;16.50;99.90
15048;DHT22;7621;52.350;13.308;2022-09-17T07:54:16;16.60;99.90
15048;DHT22;7621;52.350;13.308;2022-09-17T07:56:41;16.70;99.90
15048;DHT22;7621;52.350;13.308;2022-09-17T07:59:08;16.90;99.90
15048;DHT22;7621;52.350;13.308;2022-09-17T08:01:34;17.10;99.90
15048;DHT22;7621;52.350;13.308;2022-09-17T08:04:01;17.20;99.40
15048;DHT22;7621;52.350;13.308;2022-09-17T08:06:27;17.30;99.20
15048;DHT22;7621;52.350;13.308;2022-09-17T08:08:57;17.30;99.30
15048;DHT22;7621;52.350;13.308;2022-09-17T08:11:25;17.50;99.10
15048;DHT22;7621;52.350;13.308;2022-09-17T08:13:52;17.80;99.20
15048;DHT22;7621;52.350;13.308;2022-09-17T08:16:19;18.00;98.20
15048;DHT22;7621;52.350;13.308;2022-09-17T08:18:46;18.10;97.60
15048;DHT22;7621;52.350;13.308;2022-09-17T08:21:14;18.40;97.10
15048;DHT22;7621;52.350;13.308;2022-09-17T08:23:42;18.60;96.50
15048;DHT22;7621;52.350;13.308;2022-09-17T08:26:18;18.70;95.60
15048;DHT22;7621;52.350;13.308;2022-09-17T08:28:46;18.70;94.80
15048;DHT22;7621;52.350;13.308;2022-09-17T08:31:13;18.60;94.20
15048;DHT22;7621;52.350;13.308;2022-09-17T08:33:39;18.50;94.30
15048;DHT22;7621;52.350;13.308;2022-09-17T08:36:07;18.50;93.90
15048;DHT22;7621;52.350;13.308;2022-09-17T08:38:34;18.30;93.30
15048;DHT22;7621;52.350;13.308;2022-09-17T08:46:20;18.30;93.80
15048;DHT22;7621;52.350;13.308;2022-09-17T08:49:11;18.50;93.70
15048;DHT22;7621;52.350;13.308;2022-09-17T08:51:53;18.90;93.10
15048;DHT22;7621;52.350;13.308;2022-09-17T08:55:21;19.20;91.30
15048;DHT22;7621;52.350;13.308;2022-09-17T09:00:17;18.70;90.70
15048;DHT22;7621;52.350;13.308;2022-09-17T09:02:53;19.70;92.10
15048;DHT22;7621;52.350;13.308;2022-09-17T09:05:29;21.50;87.30
15048;DHT22;7621;52.350;13.308;2022-09-17T09:08:27;22.70;80.70
15048;DHT22;7621;52.350;13.308;2022-09-17T09:10:57;23.70;73.70
15048;DHT22;7621;52.350;13.308;2022-09-17T09:13:27;23.70;70.30
15048;DHT22;7621;52.350;13.308;2022-09-17T09:16:05;23.90;71.50
15048;DHT22;7621;52.350;13.308;2022-09-17T09:18:37;24.80;66.20
15048;DHT22;7621;52.350;13.308;2022-09-17T09:21:13;24.90;62.60
15048;DHT22;7621;52.350;13.308;2022-09-17T09:23:54;24.20;62.70
15048;DHT22;7621;52.350;13.308;2022-09-17T09:26:23;23.40;65.70
15048;DHT22;7621;52.350;13.308;2022-09-17T09:32:19;25.60;62.60
15048;DHT22;7621;52.350;13.308;2022-09-17T09:34:24;26.60;59.00
15048;DHT22;7621;52.350;13.308;2022-09-17T09:36:50;27.40;54.70
15048;DHT22;7621;52.350;13.308;2022-09-17T09:39:22;26.90;53.90
15048;DHT22;7621;52.350;13.308;2022-09-17T09:42:32;26.30;56.90
15048;DHT22;7621;52.350;13.308;2022-09-17T09:44:39;25.80;55.50
15048;DHT22;7621;52.350;13.308;2022-09-17T09:52:54;23.30;59.20
15048;DHT22;7621;52.350;13.308;2022-09-17T09:58:37;21.00;65.40
15048;DHT22;7621;52.350;13.308;2022-09-17T10:01:15;20.40;68.40
15048;DHT22;7621;52.350;13.308;2022-09-17T10:03:43;19.90;70.00
15048;DHT22;7621;52.350;13.308;2022-09-17T10:06:11;19.30;71.80
15048;DHT22;7621;52.350;13.308;2022-09-17T10:11:26;18.60;76.30
15048;DHT22;7621;52.350;13.308;2022-09-17T10:13:52;18.50;77.30
15048;DHT22;7621;52.350;13.308;2022-09-17T10:16:37;18.60;78.00
15048;DHT22;7621;52.350;13.308;2022-09-17T10:21:33;18.80;77.00
15048;DHT22;7621;52.350;13.308;2022-09-17T10:24:01;18.90;77.00
15048;DHT22;7621;52.350;13.308;2022-09-17T10:26:33;19.30;76.40
15048;DHT22;7621;52.350;13.308;2022-09-17T10:29:01;20.10;74.60
15048;DHT22;7621;52.350;13.308;2022-09-17T10:31:51;20.40;71.90
15048;DHT22;7621;52.350;13.308;2022-09-17T10:34:21;20.90;74.50
15048;DHT22;7621;52.350;13.308;2022-09-17T10:36:48;22.10;70.20
15048;DHT22;7621;52.350;13.308;2022-09-17T10:41:54;22.90;63.30
15048;DHT22;7621;52.350;13.308;2022-09-17T10:44:25;22.80;64.30
15048;DHT22;7621;52.350;13.308;2022-09-17T10:46:51;23.10;65.60
15048;DHT22;7621;52.350;13.308;2022-09-17T10:49:38;23.50;63.50
15048;DHT22;7621;52.350;13.308;2022-09-17T10:57:21;22.20;62.20
15048;DHT22;7621;52.350;13.308;2022-09-17T11:00:10;21.30;64.80
15048;DHT22;7621;52.350;13.308;2022-09-17T11:03:18;20.50;68.60
15048;DHT22;7621;52.350;13.308;2022-09-17T11:09:10;20.40;70.70
15048;DHT22;7621;52.350;13.308;2022-09-17T11:11:48;20.80;69.30
15048;DHT22;7621;52.350;13.308;2022-09-17T11:20:20;21.20;66.60
15048;DHT22;7621;52.350;13.308;2022-09-17T11:31:02;19.30;73.90
15048;DHT22;7621;52.350;13.308;2022-09-17T11:36:32;18.60;78.80
15048;DHT22;7621;52.350;13.308;2022-09-17T11:39:15;18.60;79.70
15048;DHT22;7621;52.350;13.308;2022-09-17T11:41:45;18.60;79.70
15048;DHT22;7621;52.350;13.308;2022-09-17T11:44:36;18.80;79.10
15048;DHT22;7621;52.350;13.308;2022-09-17T11:47:28;18.90;77.70
15048;DHT22;7621;52.350;13.308;2022-09-17T11:50:17;19.20;77.00
15048;DHT22;7621;52.350;13.308;2022-09-17T11:53:07;19.40;74.90
15048;DHT22;7621;52.350;13.308;2022-09-17T11:55:43;19.60;75.00
15048;DHT22;7621;52.350;13.308;2022-09-17T11:58:18;19.70;73.40
15048;DHT22;7621;52.350;13.308;2022-09-17T12:00:51;19.60;71.00
15048;DHT22;7621;52.350;13.308;2022-09-17T12:03:30;19.50;71.80
15048;DHT22;7621;52.350;13.308;2022-09-17T12:06:01;19.50;71.60
15048;DHT22;7621;52.350;13.308;2022-09-17T12:11:33;19.50;70.40
15048;DHT22;7621;52.350;13.308;2022-09-17T12:14:05;19.70;70.40
15048;DHT22;7621;52.350;13.308;2022-09-17T12:16:39;19.80;69.10
15048;DHT22;7621;52.350;13.308;2022-09-17T12:22:10;19.90;67.20
15048;DHT22;7621;52.350;13.308;2022-09-17T12:24:37;19.80;66.70
15048;DHT22;7621;52.350;13.308;2022-09-17T12:27:14;19.80;67.40
15048;DHT22;7621;52.350;13.308;2022-09-17T12:38:19;18.80;72.00
15048;DHT22;7621;52.350;13.308;2022-09-17T12:40:58;18.70;71.70
15048;DHT22;7621;52.350;13.308;2022-09-17T12:44:01;18.80;71.10
15048;DHT22;7621;52.350;13.308;2022-09-17T12:47:01;19.10;71.30
15048;DHT22;7621;52.350;13.308;2022-09-17T12:52:29;19.60;68.20
15048;DHT22;7621;52.350;13.308;2022-09-17T13:00:47;19.20;67.60
15048;DHT22;7621;52.350;13.308;2022-09-17T13:03:28;19.00;67.60
15048;DHT22;7621;52.350;13.308;2022-09-17T13:06:20;18.90;68.70
15048;DHT22;7621;52.350;13.308;2022-09-17T13:09:24;18.90;68.80
15048;DHT22;7621;52.350;13.308;2022-09-17T13:12:16;18.70;68.20
15048;DHT22;7621;52.350;13.308;2022-09-17T13:15:05;18.50;66.80
15048;DHT22;7621;52.350;13.308;2022-09-17T13:20:20;18.50;65.30
15048;DHT22;7621;52.350;13.308;2022-09-17T13:22:52;18.50;65.60
15048;DHT22;7621;52.350;13.308;2022-09-17T13:25:20;18.40;64.90
15048;DHT22;7621;52.350;13.308;2022-09-17T13:27:47;18.30;65.30
15048;DHT22;7621;52.350;13.308;2022-09-17T13:30:16;18.20;65.40
15048;DHT22;7621;52.350;13.308;2022-09-17T13:32:47;18.10;65.80
15048;DHT22;7621;52.350;13.308;2022-09-17T13:40:22;18.30;67.10
15048;DHT22;7621;52.350;13.308;2022-09-17T13:42:58;18.50;67.00
15048;DHT22;7621;52.350;13.308;2022-09-17T13:45:31;18.70;66.40
15048;DHT22;7621;52.350;13.308;2022-09-17T13:48:03;18.90;66.30
15048;DHT22;7621;52.350;13.308;2022-09-17T13:50:33;19.00;66.00
15048;DHT22;7621;52.350;13.308;2022-09-17T13:55:44;19.10;66.30
15048;DHT22;7621;52.350;13.308;2022-09-17T14:00:51;18.90;63.90
15048;DHT22;7621;52.350;13.308;2022-09-17T14:16:31;18.00;65.00
15048;DHT22;7621;52.350;13.308;2022-09-17T14:24:26;17.90;65.20
15048;DHT22;7621;52.350;13.308;2022-09-17T14:27:09;17.90;65.60
15048;DHT22;7621;52.350;13.308;2022-09-17T14:38:14;17.50;68.80
15048;DHT22;7621;52.350;13.308;2022-09-17T14:40:49;17.50;69.20
15048;DHT22;7621;52.350;13.308;2022-09-17T14:46:22;17.10;69.90
15048;DHT22;7621;52.350;13.308;2022-09-17T14:48:48;17.00;71.00
15048;DHT22;7621;52.350;13.308;2022-09-17T14:56:32;17.00;72.90
15048;DHT22;7621;52.350;13.308;2022-09-17T14:58:59;17.00;72.80
15048;DHT22;7621;52.350;13.308;2022-09-17T15:01:29;17.10;72.90
15048;DHT22;7621;52.350;13.308;2022-09-17T15:06:43;16.90;73.50
15048;DHT22;7621;52.350;13.308;2022-09-17T15:09:22;16.80;73.90
15048;DHT22;7621;52.350;13.308;2022-09-17T15:11:54;16.70;74.80
15048;DHT22;7621;52.350;13.308;2022-09-17T15:14:30;16.60;74.60
15048;DHT22;7621;52.350;13.308;2022-09-17T15:16:58;16.50;74.10
15048;DHT22;7621;52.350;13.308;2022-09-17T15:19:33;16.50;73.10
15048;DHT22;7621;52.350;13.308;2022-09-17T15:22:12;16.40;72.40
15048;DHT22;7621;52.350;13.308;2022-09-17T15:24:59;16.40;71.90
15048;DHT22;7621;52.350;13.308;2022-09-17T15:30:13;16.30;72.10
15048;DHT22;7621;52.350;13.308;2022-09-17T15:32:42;16.30;72.30
15048;DHT22;7621;52.350;13.308;2022-09-17T15:37:53;16.10;71.00
15048;DHT22;7621;52.350;13.308;2022-09-17T15:40:30;16.00;71.40
15048;DHT22;7621;52.350;13.308;2022-09-17T15:43:19;15.80;71.40
15048;DHT22;7621;52.350;13.308;2022-09-17T15:45:46;15.60;71.70
15048;DHT22;7621;52.350;13.308;2022-09-17T15:50:58;15.50;72.80
15048;DHT22;7621;52.350;13.308;2022-09-17T15:53:30;15.50;73.40
15048;DHT22;7621;52.350;13.308;2022-09-17T15:56:05;15.40;74.00
15048;DHT22;7621;52.350;13.308;2022-09-17T16:08:47;14.90;75.80
15048;DHT22;7621;52.350;13.308;2022-09-17T16:11:15;14.80;76.00
15048;DHT22;7621;52.350;13.308;2022-09-17T16:13:40;14.70;75.80
15048;DHT22;7621;52.350;13.308;2022-09-17T16:16:08;14.60;76.30
15048;DHT22;7621;52.350;13.308;2022-09-17T16:18:38;14.60;76.90
15048;DHT22;7621;52.350;13.308;2022-09-17T16:21:03;14.50;77.40
15048;DHT22;7621;52.350;13.308;2022-09-17T16:23:29;14.50;77.80
15048;DHT22;7621;52.350;13.308;2022-09-17T16:25:54;14.50;77.90
15048;DHT22;7621;52.350;13.308;2022-09-17T16:28:21;14.50;78.20
15048;DHT22;7621;52.350;13.308;2022-09-17T16:30:47;14.50;78.40
15048;DHT22;7621;52.350;13.308;2022-09-17T16:33:15;14.50;78.80
15048;DHT22;7621;52.350;13.308;2022-09-17T16:35:42;14.50;79.00
15048;DHT22;7621;52.350;13.308;2022-09-17T16:38:09;14.50;79.10
15048;DHT22;7621;52.350;13.308;2022-09-17T16:40:39;14.40;79.20
15048;DHT22;7621;52.350;13.308;2022-09-17T16:43:05;14.40;79.20
15048;DHT22;7621;52.350;13.308;2022-09-17T16:45:31;14.30;78.80
15048;DHT22;7621;52.350;13.308;2022-09-17T16:47:57;14.20;78.90
15048;DHT22;7621;52.350;13.308;2022-09-17T16:50:23;14.10;79.00
15048;DHT22;7621;52.350;13.308;2022-09-17T16:52:49;14.00;78.90
15048;DHT22;7621;52.350;13.308;2022-09-17T16:55:16;13.90;78.90
15048;DHT22;7621;52.350;13.308;2022-09-17T16:57:42;13.80;79.20
15048;DHT22;7621;52.350;13.308;2022-09-17T17:00:10;13.70;79.70
15048;DHT22;7621;52.350;13.308;2022-09-17T17:02:37;13.70;80.10
15048;DHT22;7621;52.350;13.308;2022-09-17T17:05:03;13.60;80.40
15048;DHT22;7621;52.350;13.308;2022-09-17T17:07:29;13.70;80.80
15048;DHT22;7621;52.350;13.308;2022-09-17T17:09:57;13.60;80.80
15048;DHT22;7621;52.350;13.308;2022-09-17T17:12:24;13.60;80.80
15048;DHT22;7621;52.350;13.308;2022-09-17T17:14:50;13.60;81.10
15048;DHT22;7621;52.350;13.308;2022-09-17T17:17:18;13.60;81.40
15048;DHT22;7621;52.350;13.308;2022-09-17T17:19:43;13.60;81.40
15048;DHT22;7621;52.350;13.308;2022-09-17T17:22:11;13.50;81.50
15048;DHT22;7621;52.350;13.308;2022-09-17T17:24:36;13.60;82.00
15048;DHT22;7621;52.350;13.308;2022-09-17T17:27:02;13.50;82.20
15048;DHT22;7621;52.350;13.308;2022-09-17T17:29:28;13.50;82.60
15048;DHT22;7621;52.350;13.308;2022-09-17T17:31:53;13.50;83.80
15048;DHT22;7621;52.350;13.308;2022-09-17T17:34:19;13.50;83.30
15048;DHT22;7621;52.350;13.308;2022-09-17T17:36:47;13.50;83.80
15048;DHT22;7621;52.350;13.308;2022-09-17T17:39:13;13.50;84.20
15048;DHT22;7621;52.350;13.308;2022-09-17T17:41:39;13.50;84.70
15048;DHT22;7621;52.350;13.308;2022-09-17T17:44:04;13.50;85.00
15048;DHT22;7621;52.350;13.308;2022-09-17T17:46:30;13.50;85.20
15048;DHT22;7621;52.350;13.308;2022-09-17T17:48:56;13.60;85.50
15048;DHT22;7621;52.350;13.308;2022-09-17T17:51:22;13.50;85.60
15048;DHT22;7621;52.350;13.308;2022-09-17T17:53:49;13.50;85.80
15048;DHT22;7621;52.350;13.308;2022-09-17T17:56:15;13.50;86.00
15048;DHT22;7621;52.350;13.308;2022-09-17T17:58:41;13.50;86.30
15048;DHT22;7621;52.350;13.308;2022-09-17T18:01:15;13.50;86.50
15048;DHT22;7621;52.350;13.308;2022-09-17T18:03:41;13.50;86.80
15048;DHT22;7621;52.350;13.308;2022-09-17T18:06:07;13.50;87.00
15048;DHT22;7621;52.350;13.308;2022-09-17T18:08:37;13.50;87.20
15048;DHT22;7621;52.350;13.308;2022-09-17T18:11:03;13.50;87.40
15048;DHT22;7621;52.350;13.308;2022-09-17T18:13:30;13.50;87.60
15048;DHT22;7621;52.350;13.308;2022-09-17T18:15:57;13.40;87.90
15048;DHT22;7621;52.350;13.308;2022-09-17T18:18:24;13.40;88.60
15048;DHT22;7621;52.350;13.308;2022-09-17T18:20:51;13.30;90.00
15048;DHT22;7621;52.350;13.308;2022-09-17T18:23:20;13.20;90.60
15048;DHT22;7621;52.350;13.308;2022-09-17T18:25:56;13.10;91.20
15048;DHT22;7621;52.350;13.308;2022-09-17T18:28:23;13.00;91.90
15048;DHT22;7621;52.350;13.308;2022-09-17T18:30:49;12.90;92.40
15048;DHT22;7621;52.350;13.308;2022-09-17T18:33:26;12.90;93.00
15048;DHT22;7621;52.350;13.308;2022-09-17T18:35:52;12.80;93.40
15048;DHT22;7621;52.350;13.308;2022-09-17T18:38:22;12.80;93.70
15048;DHT22;7621;52.350;13.308;2022-09-17T18:40:48;12.90;94.10
15048;DHT22;7621;52.350;13.308;2022-09-17T18:43:14;12.80;94.30
15048;DHT22;7621;52.350;13.308;2022-09-17T18:45:40;12.80;94.70
15048;DHT22;7621;52.350;13.308;2022-09-17T18:48:05;12.80;95.00
15048;DHT22;7621;52.350;13.308;2022-09-17T18:50:32;12.80;95.30
15048;DHT22;7621;52.350;13.308;2022-09-17T18:52:58;12.80;95.60
15048;DHT22;7621;52.350;13.308;2022-09-17T18:55:23;12.80;95.80
15048;DHT22;7621;52.350;13.308;2022-09-17T18:57:50;12.90;96.00
15048;DHT22;7621;52.350;13.308;2022-09-17T19:00:19;12.80;96.10
15048;DHT22;7621;52.350;13.308;2022-09-17T19:02:47;12.80;96.40
15048;DHT22;7621;52.350;13.308;2022-09-17T19:05:13;12.80;96.70
15048;DHT22;7621;52.350;13.308;2022-09-17T19:07:45;12.80;97.10
15048;DHT22;7621;52.350;13.308;2022-09-17T19:10:11;12.80;97.40
15048;DHT22;7621;52.350;13.308;2022-09-17T19:12:37;12.80;97.60
15048;DHT22;7621;52.350;13.308;2022-09-17T19:15:03;12.80;98.10
15048;DHT22;7621;52.350;13.308;2022-09-17T19:17:28;12.80;98.40
15048;DHT22;7621;52.350;13.308;2022-09-17T19:19:54;12.80;98.80
15048;DHT22;7621;52.350;13.308;2022-09-17T19:22:19;12.70;98.90
15048;DHT22;7621;52.350;13.308;2022-09-17T19:24:45;12.70;99.30
15048;DHT22;7621;52.350;13.308;2022-09-17T19:27:13;12.70;99.70
15048;DHT22;7621;52.350;13.308;2022-09-17T19:29:39;12.70;99.90
15048;DHT22;7621;52.350;13.308;2022-09-17T19:32:04;12.60;99.90
15048;DHT22;7621;52.350;13.308;2022-09-17T19:34:30;12.60;99.90
15048;DHT22;7621;52.350;13.308;2022-09-17T19:36:56;12.60;99.90
15048;DHT22;7621;52.350;13.308;2022-09-17T19:39:21;12.60;99.90
15048;DHT22;7621;52.350;13.308;2022-09-17T19:41:47;12.60;99.90
15048;DHT22;7621;52.350;13.308;2022-09-17T19:44:12;12.70;99.90
15048;DHT22;7621;52.350;13.308;2022-09-17T19:46:38;12.70;99.90
15048;DHT22;7621;52.350;13.308;2022-09-17T19:49:03;12.60;99.90
15048;DHT22;7621;52.350;13.308;2022-09-17T19:51:29;12.60;99.90
15048;DHT22;7621;52.350;13.308;2022-09-17T19:53:55;12.60;99.90
15048;DHT22;7621;52.350;13.308;2022-09-17T19:56:23;12.60;99.90
15048;DHT22;7621;52.350;13.308;2022-09-17T19:58:49;12.60;99.90
15048;DHT22;7621;52.350;13.308;2022-09-17T20:01:16;12.60;99.90
15048;DHT22;7621;52.350;13.308;2022-09-17T20:03:42;12.60;99.90
15048;DHT22;7621;52.350;13.308;2022-09-17T20:06:11;12.70;99.90
15048;DHT22;7621;52.350;13.308;2022-09-17T20:08:46;12.70;99.90
15048;DHT22;7621;52.350;13.308;2022-09-17T20:11:12;12.70;99.90
15048;DHT22;7621;52.350;13.308;2022-09-17T20:13:37;12.70;99.90
15048;DHT22;7621;52.350;13.308;2022-09-17T20:16:09;12.70;99.90
15048;DHT22;7621;52.350;13.308;2022-09-17T20:18:35;12.70;99.90
15048;DHT22;7621;52.350;13.308;2022-09-17T20:21:12;12.70;99.90
15048;DHT22;7621;52.350;13.308;2022-09-17T20:23:38;12.70;99.90
15048;DHT22;7621;52.350;13.308;2022-09-17T20:26:04;12.70;99.90
15048;DHT22;7621;52.350;13.308;2022-09-17T20:28:30;12.70;99.90
15048;DHT22;7621;52.350;13.308;2022-09-17T20:31:20;12.70;99.90
15048;DHT22;7621;52.350;13.308;2022-09-17T20:33:49;12.70;99.90
15048;DHT22;7621;52.350;13.308;2022-09-17T20:36:17;12.70;99.90
15048;DHT22;7621;52.350;13.308;2022-09-17T20:38:43;12.70;99.90
15048;DHT22;7621;52.350;13.308;2022-09-17T20:41:10;12.60;99.90
15048;DHT22;7621;52.350;13.308;2022-09-17T20:43:47;12.60;99.90
15048;DHT22;7621;52.350;13.308;2022-09-17T20:46:14;12.60;99.90
15048;DHT22;7621;52.350;13.308;2022-09-17T20:48:40;12.60;99.90
15048;DHT22;7621;52.350;13.308;2022-09-17T20:51:09;12.70;99.90
15048;DHT22;7621;52.350;13.308;2022-09-17T20:53:35;12.70;99.90
15048;DHT22;7621;52.350;13.308;2022-09-17T20:56:04;12.70;99.90
15048;DHT22;7621;52.350;13.308;2022-09-17T20:58:31;12.70;99.90
15048;DHT22;7621;52.350;13.308;2022-09-17T21:01:12;12.70;99.90
15048;DHT22;7621;52.350;13.308;2022-09-17T21:03:40;12.70;99.90
15048;DHT22;7621;52.350;13.308;2022-09-17T21:06:06;12.70;99.90
15048;DHT22;7621;52.350;13.308;2022-09-17T21:08:32;12.70;99.90
15048;DHT22;7621;52.350;13.308;2022-09-17T21:11:02;12.70;99.90
15048;DHT22;7621;52.350;13.308;2022-09-17T21:13:28;12.70;99.90
15048;DHT22;7621;52.350;13.308;2022-09-17T21:15:58;12.70;99.90
15048;DHT22;7621;52.350;13.308;2022-09-17T21:18:24;12.70;99.90
15048;DHT22;7621;52.350;13.308;2022-09-17T21:20:49;12.70;99.90
15048;DHT22;7621;52.350;13.308;2022-09-17T21:23:15;12.70;99.90
15048;DHT22;7621;52.350;13.308;2022-09-17T21:25:40;12.70;99.90
15048;DHT22;7621;52.350;13.308;2022-09-17T21:28:06;12.70;99.90
15048;DHT22;7621;52.350;13.308;2022-09-17T21:30:31;12.70;99.90
15048;DHT22;7621;52.350;13.308;2022-09-17T21:32:57;12.60;99.90
15048;DHT22;7621;52.350;13.308;2022-09-17T21:35:24;12.60;99.90
15048;DHT22;7621;52.350;13.308;2022-09-17T21:37:54;12.60;99.90
15048;DHT22;7621;52.350;13.308;2022-09-17T21:40:20;12.60;99.90
15048;DHT22;7621;52.350;13.308;2022-09-17T21:42:45;12.60;99.90
15048;DHT22;7621;52.350;13.308;2022-09-17T21:45:11;12.70;99.90
15048;DHT22;7621;52.350;13.308;2022-09-17T21:47:36;12.70;99.90
15048;DHT22;7621;52.350;13.308;2022-09-17T21:50:02;12.70;99.90
15048;DHT22;7621;52.350;13.308;2022-09-17T21:52:28;12.70;99.90
15048;DHT22;7621;52.350;13.308;2022-09-17T21:54:54;12.70;99.90
15048;DHT22;7621;52.350;13.308;2022-09-17T21:57:19;12.80;99.90
15048;DHT22;7621;52.350;13.308;2022-09-17T21:59:45;12.70;99.90
15048;DHT22;7621;52.350;13.308;2022-09-17T22:02:10;12.70;99.90
15048;DHT22;7621;52.350;13.308;2022-09-17T22:04:36;12.70;99.90
15048;DHT22;7621;52.350;13.308;2022-09-17T22:07:02;12.70;99.90
15048;DHT22;7621;52.350;13.308;2022-09-17T22:09:27;12.60;99.90
15048;DHT22;7621;52.350;13.308;2022-09-17T22:11:54;12.70;99.90
15048;DHT22;7621;52.350;13.308;2022-09-17T22:14:24;12.70;99.90
15048;DHT22;7621;52.350;13.308;2022-09-17T22:16:51;12.70;99.90
15048;DHT22;7621;52.350;13.308;2022-09-17T22:19:18;12.70;99.90
15048;DHT22;7621;52.350;13.308;2022-09-17T22:21:47;12.70;99.90
15048;DHT22;7621;52.350;13.308;2022-09-17T22:24:14;12.60;99.90
15048;DHT22;7621;52.350;13.308;2022-09-17T22:26:43;12.60;99.90
15048;DHT22;7621;52.350;13.308;2022-09-17T22:29:12;12.60;99.90
15048;DHT22;7621;52.350;13.308;2022-09-17T22:31:38;12.60;99.90
15048;DHT22;7621;52.350;13.308;2022-09-17T22:34:09;12.60;99.90
